Arbor, Missouri
Current Conditions -  °F | °C
As of 3:53 PM on Wednesday 22 Oct 2014 (Local Time) from KCGI Reporting Station
Clear Clear  
Wind Chill: 65°   Ceiling: Unl
Heat Index: 65°   Visibility: 10mi
Dew Point: 42°   Wind: 7mph
Humidity: 43%   Direction: 30°NNE
Pressure: 30.22"   Gusts: NA
Location:  37.1651°N, 89.623°W
Report Text: KCGI 222053Z 03006KT 10SM CLR 18/06 A3022 RMK AO2 SLP234 T01830056 56019
Loading
Personal Weather Stations






























Interactive Weather Map
Tropical Storm Tracking
New forecast layout! Learn more

10-Day Weather Forecast

Advertisements
Track Severe Weather on mobile